createdAt,value
2018-01-16T00:02:09.316Z,-0.16
2018-01-16T00:04:40.085Z,-0.15
2018-01-16T00:07:10.888Z,-0.17
2018-01-16T00:09:41.640Z,-0.22
2018-01-16T00:12:12.401Z,-0.15
2018-01-16T00:14:43.152Z,-0.16
2018-01-16T00:17:13.940Z,-0.18
2018-01-16T00:19:44.765Z,-0.21
2018-01-16T00:22:28.043Z,-0.23
2018-01-16T00:24:58.888Z,-0.24
2018-01-16T00:27:29.696Z,-0.22
2018-01-16T00:30:00.481Z,-0.17
2018-01-16T00:32:31.216Z,-0.20
2018-01-16T00:35:01.970Z,-0.27
2018-01-16T00:37:32.703Z,-0.23
2018-01-16T00:40:03.485Z,-0.25
2018-01-16T00:42:34.268Z,-0.24
2018-01-16T00:45:05.028Z,-0.20
2018-01-16T00:47:35.768Z,-0.22
2018-01-16T00:50:06.600Z,-0.19
2018-01-16T00:52:37.348Z,-0.18
2018-01-16T00:55:08.121Z,-0.21
2018-01-16T00:57:38.920Z,-0.18
2018-01-16T01:00:09.668Z,-0.16
2018-01-16T01:02:40.409Z,-0.12
2018-01-16T01:05:11.163Z,-0.17
2018-01-16T01:07:44.017Z,-0.18
2018-01-16T01:10:14.770Z,-0.17
2018-01-16T01:12:45.609Z,-0.15
2018-01-16T01:15:16.364Z,-0.11
2018-01-16T01:17:47.118Z,-0.10
2018-01-16T01:20:18.163Z,-0.14
2018-01-16T01:22:48.908Z,-0.13
2018-01-16T01:25:19.729Z,-0.12
2018-01-16T01:27:50.505Z,-0.13
2018-01-16T01:30:21.270Z,-0.11
2018-01-16T01:32:52.017Z,-0.17
2018-01-16T01:35:22.923Z,-0.16
2018-01-16T01:37:53.687Z,-0.10
2018-01-16T01:40:24.469Z,-0.14
2018-01-16T01:42:55.235Z,-0.14
2018-01-16T01:45:26.209Z,-0.11
2018-01-16T01:47:57.104Z,-0.14
2018-01-16T01:50:27.864Z,-0.14
2018-01-16T01:52:58.591Z,-0.24
2018-01-16T01:55:29.360Z,-0.22
2018-01-16T01:58:00.118Z,-0.19
2018-01-16T02:00:30.892Z,-0.15
2018-01-16T02:03:01.644Z,-0.11
2018-01-16T02:05:32.474Z,-0.09
2018-01-16T02:08:04.280Z,-0.10
2018-01-16T02:10:35.061Z,-0.02
2018-01-16T02:13:05.854Z,0.04
2018-01-16T02:15:36.612Z,0.05
2018-01-16T02:18:07.339Z,0.02
2018-01-16T02:20:38.117Z,0.01
2018-01-16T02:23:08.856Z,0.03
2018-01-16T02:25:39.612Z,-0.08
2018-01-16T02:28:10.364Z,0.00
2018-01-16T02:30:41.124Z,-0.01
2018-01-16T02:33:11.853Z,0.03
2018-01-16T02:35:49.623Z,0.09
2018-01-16T02:38:20.364Z,0.12
2018-01-16T02:40:51.168Z,0.15
2018-01-16T02:43:21.917Z,0.15
2018-01-16T02:45:52.687Z,0.14
2018-01-16T02:48:23.516Z,0.20
2018-01-16T02:50:54.283Z,0.23
2018-01-16T02:53:25.015Z,0.23
2018-01-16T02:55:55.779Z,0.26
2018-01-16T02:58:26.541Z,0.36
2018-01-16T03:00:57.306Z,0.40
2018-01-16T03:03:28.062Z,0.45
2018-01-16T03:05:58.840Z,0.50
2018-01-16T03:08:29.592Z,0.56
2018-01-16T03:11:00.412Z,0.58
2018-01-16T03:13:31.162Z,0.54
2018-01-16T03:16:01.938Z,0.58
2018-01-16T03:18:32.703Z,0.67
2018-01-16T03:21:03.476Z,0.70
2018-01-16T03:23:34.232Z,0.66
2018-01-16T03:26:05.080Z,0.69
2018-01-16T03:28:35.832Z,0.71
2018-01-16T03:31:06.607Z,0.73
2018-01-16T03:33:37.344Z,0.72
2018-01-16T03:36:08.124Z,0.71
2018-01-16T03:38:38.908Z,0.69
2018-01-16T03:41:09.677Z,0.68
2018-01-16T03:43:40.412Z,0.73
2018-01-16T03:46:11.212Z,0.73
2018-01-16T03:48:42.116Z,0.74
2018-01-16T03:51:12.929Z,0.73
2018-01-16T03:53:43.676Z,0.77
2018-01-16T03:56:14.441Z,0.75
2018-01-16T03:58:45.194Z,0.82
2018-01-16T04:01:16.156Z,0.75
2018-01-16T04:03:46.904Z,0.70
2018-01-16T04:06:17.669Z,0.62
2018-01-16T04:08:48.436Z,0.69
2018-01-16T04:11:19.205Z,0.64
2018-01-16T04:13:49.944Z,0.62
2018-01-16T04:16:20.708Z,0.63
2018-01-16T04:18:51.498Z,0.61
2018-01-16T04:21:22.295Z,0.69
2018-01-16T04:23:53.024Z,0.68
2018-01-16T04:26:23.798Z,0.70
2018-01-16T04:28:54.530Z,0.71
2018-01-16T04:31:25.293Z,0.71
2018-01-16T04:33:56.060Z,0.75
2018-01-16T04:36:26.816Z,0.77
2018-01-16T04:38:57.568Z,0.81
2018-01-16T04:41:28.320Z,0.81
2018-01-16T04:43:59.068Z,0.84
2018-01-16T04:46:29.819Z,0.90
2018-01-16T04:49:00.552Z,0.89
2018-01-16T04:51:31.328Z,0.87
2018-01-16T04:54:02.075Z,0.93
2018-01-16T04:56:32.915Z,1.01
2018-01-16T04:59:03.680Z,1.00
2018-01-16T05:01:34.443Z,1.02
2018-01-16T05:04:05.383Z,1.02
2018-01-16T05:06:36.156Z,1.03
2018-01-16T05:09:06.904Z,0.96
2018-01-16T05:11:37.683Z,0.97
2018-01-16T05:14:08.409Z,0.95
2018-01-16T05:16:39.329Z,0.96
2018-01-16T05:19:10.089Z,0.94
2018-01-16T05:21:40.848Z,0.97
2018-01-16T05:24:11.592Z,1.00
2018-01-16T05:26:42.333Z,0.97
2018-01-16T05:29:13.064Z,0.99
2018-01-16T05:31:43.828Z,1.01
2018-01-16T05:34:14.588Z,1.02
2018-01-16T05:36:45.364Z,1.01
2018-01-16T05:39:16.179Z,0.98
2018-01-16T05:41:46.944Z,1.00
2018-01-16T05:44:17.693Z,1.00
2018-01-16T05:46:48.483Z,1.03
2018-01-16T05:49:19.253Z,1.02
2018-01-16T05:51:50.029Z,1.02
2018-01-16T05:54:20.788Z,1.04
2018-01-16T05:56:51.544Z,0.99
2018-01-16T05:59:22.281Z,1.00
2018-01-16T06:01:53.036Z,1.02
2018-01-16T06:04:23.827Z,1.04
2018-01-16T06:06:54.626Z,1.10
2018-01-16T06:09:25.356Z,1.12
2018-01-16T06:11:56.117Z,1.10
2018-01-16T06:14:26.876Z,1.15
2018-01-16T06:16:57.645Z,1.09
2018-01-16T06:19:28.389Z,1.12
2018-01-16T06:21:59.178Z,1.12
2018-01-16T06:24:29.925Z,1.13
2018-01-16T06:27:00.694Z,1.14
2018-01-16T06:29:31.452Z,1.14
2018-01-16T06:32:02.211Z,1.16
2018-01-16T06:34:32.961Z,1.17
2018-01-16T06:37:03.712Z,1.18
2018-01-16T06:39:34.484Z,1.15
2018-01-16T06:42:05.377Z,1.16
2018-01-16T06:44:36.125Z,1.23
2018-01-16T06:47:06.880Z,1.22
2018-01-16T06:49:37.636Z,1.22
2018-01-16T06:52:08.405Z,1.24
2018-01-16T06:54:39.159Z,1.22
2018-01-16T06:57:09.924Z,1.23
2018-01-16T06:59:40.676Z,1.23
2018-01-16T07:02:11.436Z,1.27
2018-01-16T07:04:42.180Z,1.27
2018-01-16T07:07:12.995Z,1.33
2018-01-16T07:09:43.753Z,1.31
2018-01-16T07:12:14.530Z,1.38
2018-01-16T07:14:45.303Z,1.37
2018-01-16T07:17:16.069Z,1.39
2018-01-16T07:19:46.833Z,1.41
2018-01-16T07:22:17.605Z,1.43
2018-01-16T07:24:48.451Z,1.40
2018-01-16T07:27:19.232Z,1.39
2018-01-16T07:29:49.972Z,1.48
2018-01-16T07:32:20.766Z,1.48
2018-01-16T07:34:51.511Z,1.49
2018-01-16T07:37:22.268Z,1.55
2018-01-16T07:39:53.024Z,1.57
2018-01-16T07:42:23.815Z,1.61
2018-01-16T07:44:54.570Z,1.65
2018-01-16T07:47:25.372Z,1.64
2018-01-16T07:49:56.133Z,1.65
2018-01-16T07:52:26.875Z,1.66
2018-01-16T07:54:57.626Z,1.71
2018-01-16T07:57:28.373Z,1.70
2018-01-16T07:59:59.109Z,1.67
2018-01-16T08:02:29.872Z,1.65
2018-01-16T08:05:00.650Z,1.65
2018-01-16T08:07:31.393Z,1.69
2018-01-16T08:10:02.185Z,1.72
2018-01-16T08:12:32.957Z,1.80
2018-01-16T08:15:03.698Z,1.85
2018-01-16T08:17:34.452Z,1.93
2018-01-16T08:20:05.348Z,2.03
2018-01-16T08:22:36.136Z,2.00
2018-01-16T08:25:06.900Z,2.07
2018-01-16T08:27:37.665Z,2.15
2018-01-16T08:30:08.425Z,2.23
2018-01-16T08:32:39.184Z,2.30
2018-01-16T08:35:09.949Z,2.45
2018-01-16T08:37:41.609Z,2.48
2018-01-16T08:40:12.416Z,2.61
2018-01-16T08:42:43.207Z,2.75
2018-01-16T08:45:13.966Z,2.80
2018-01-16T08:47:44.763Z,2.78
2018-01-16T08:50:15.505Z,2.79
2018-01-16T08:52:46.266Z,2.77
2018-01-16T08:55:17.099Z,3.00
2018-01-16T08:57:47.880Z,3.33
2018-01-16T09:00:18.631Z,3.67
2018-01-16T09:02:49.416Z,4.05
2018-01-16T09:05:20.147Z,4.62
2018-01-16T09:07:51.010Z,4.87
2018-01-16T09:10:21.748Z,5.29
2018-01-16T09:12:52.522Z,5.49
2018-01-16T09:15:23.321Z,5.74
2018-01-16T09:17:54.103Z,6.27
2018-01-16T09:20:24.985Z,5.96
2018-01-16T09:22:55.748Z,5.76
2018-01-16T09:25:29.720Z,5.70
2018-01-16T09:28:00.504Z,5.74
2018-01-16T09:30:31.252Z,6.22
2018-01-16T09:33:03.087Z,5.94
2018-01-16T09:35:33.828Z,6.02
2018-01-16T09:38:05.668Z,5.94
2018-01-16T09:40:36.407Z,5.82
2018-01-16T09:43:07.173Z,5.84
2018-01-16T09:45:37.912Z,5.67
2018-01-16T09:48:08.691Z,5.73
2018-01-16T09:50:39.432Z,5.92
2018-01-16T09:53:10.212Z,5.90
2018-01-16T09:55:40.953Z,6.09
2018-01-16T09:58:11.724Z,6.31
2018-01-16T10:00:42.477Z,6.33
2018-01-16T10:03:13.237Z,6.13
2018-01-16T10:05:43.971Z,5.92
2018-01-16T10:08:14.760Z,5.89
2018-01-16T10:10:45.581Z,5.77
2018-01-16T10:13:16.357Z,6.08
2018-01-16T10:15:47.131Z,6.17
2018-01-16T10:18:17.913Z,6.48
2018-01-16T10:20:48.672Z,6.52
2018-01-16T10:23:19.457Z,6.35
2018-01-16T10:25:50.207Z,6.16
2018-01-16T10:28:20.969Z,6.08
2018-01-16T10:30:51.770Z,6.17
2018-01-16T10:33:22.529Z,6.23
2018-01-16T10:35:53.268Z,6.14
2018-01-16T10:38:24.037Z,6.09
2018-01-16T10:40:54.799Z,6.16
2018-01-16T10:43:25.550Z,6.22
2018-01-16T10:45:56.317Z,6.47
2018-01-16T10:48:27.103Z,6.23
2018-01-16T10:50:57.869Z,6.12
2018-01-16T10:53:28.708Z,6.10
2018-01-16T10:56:06.462Z,6.22
2018-01-16T10:58:37.227Z,6.15
2018-01-16T11:01:07.978Z,6.25
2018-01-16T11:03:38.757Z,6.17
2018-01-16T11:06:09.512Z,6.22
2018-01-16T11:08:40.277Z,6.26
2018-01-16T11:11:11.036Z,6.32
2018-01-16T11:13:41.831Z,6.51
2018-01-16T11:16:12.608Z,6.74
2018-01-16T11:18:43.387Z,6.76
2018-01-16T11:21:14.140Z,6.81
2018-01-16T11:23:44.892Z,6.89
2018-01-16T11:26:15.713Z,6.56
2018-01-16T11:28:46.502Z,6.79
2018-01-16T11:31:17.353Z,6.74
2018-01-16T11:33:48.218Z,6.82
2018-01-16T11:36:19.013Z,6.66
2018-01-16T11:38:49.780Z,6.68
2018-01-16T11:41:20.544Z,6.45
2018-01-16T11:43:51.294Z,6.25
2018-01-16T11:46:22.063Z,6.32
2018-01-16T11:48:52.925Z,6.40
2018-01-16T11:51:23.688Z,6.33
2018-01-16T11:53:54.499Z,6.51
2018-01-16T11:56:25.312Z,6.54
2018-01-16T11:58:56.074Z,6.48
2018-01-16T12:01:26.844Z,6.51
2018-01-16T12:03:57.641Z,6.54
2018-01-16T12:06:28.492Z,6.62
2018-01-16T12:08:59.300Z,6.62
2018-01-16T12:11:30.068Z,6.61
2018-01-16T12:14:00.829Z,6.63
2018-01-16T12:16:31.578Z,6.69
2018-01-16T12:19:02.345Z,6.69
2018-01-16T12:21:33.104Z,6.84
2018-01-16T12:24:03.871Z,6.89
2018-01-16T12:26:34.650Z,6.88
2018-01-16T12:29:05.411Z,6.82
2018-01-16T12:31:36.191Z,6.73
2018-01-16T12:34:06.949Z,6.70
2018-01-16T12:36:37.716Z,6.59
2018-01-16T12:39:08.477Z,6.48
2018-01-16T12:41:39.247Z,6.48
2018-01-16T12:44:10.130Z,6.50
2018-01-16T12:46:40.875Z,6.46
2018-01-16T12:49:12.425Z,6.44
2018-01-16T12:51:43.177Z,6.51
2018-01-16T12:54:13.957Z,6.52
2018-01-16T12:56:44.735Z,6.55
2018-01-16T12:59:15.532Z,6.59
2018-01-16T13:01:46.288Z,6.71
2018-01-16T13:04:17.314Z,6.82
2018-01-16T13:06:48.092Z,6.94
2018-01-16T13:09:18.852Z,7.03
2018-01-16T13:11:49.624Z,7.06
2018-01-16T13:16:57.877Z,7.11
2018-01-16T13:19:28.640Z,7.12
2018-01-16T13:21:59.397Z,7.07
2018-01-16T13:24:30.164Z,7.20
2018-01-16T13:27:00.943Z,7.25
2018-01-16T13:29:32.118Z,7.20
2018-01-16T13:32:03.958Z,7.13
2018-01-16T13:34:34.820Z,6.99
2018-01-16T13:37:05.629Z,6.83
2018-01-16T13:39:36.494Z,6.74
2018-01-16T13:42:07.312Z,6.74
2018-01-16T13:44:38.162Z,6.80
2018-01-16T13:47:08.919Z,6.84
2018-01-16T13:49:39.688Z,6.85
2018-01-16T13:52:10.433Z,6.86
2018-01-16T13:54:41.211Z,6.86
2018-01-16T13:57:11.963Z,6.86
2018-01-16T13:59:42.780Z,6.90
2018-01-16T14:02:13.587Z,6.87
2018-01-16T14:07:45.252Z,6.78
2018-01-16T14:10:16.108Z,6.70
2018-01-16T14:12:46.872Z,6.57
2018-01-16T14:15:17.669Z,6.42
2018-01-16T14:17:48.516Z,6.37
2018-01-16T14:20:19.386Z,6.34
2018-01-16T14:22:50.136Z,6.28
2018-01-16T14:25:28.804Z,6.34
2018-01-16T14:30:57.522Z,6.36
2018-01-16T14:33:28.322Z,6.28
2018-01-16T14:35:59.195Z,6.21
2018-01-16T14:38:30.006Z,6.22
2018-01-16T14:41:00.853Z,6.17
2018-01-16T14:43:31.663Z,6.05
2018-01-16T14:46:02.689Z,5.91
2018-01-16T14:48:33.448Z,5.73
2018-01-16T14:51:04.217Z,5.60
2018-01-16T14:53:35.031Z,5.61
2018-01-16T14:56:06.232Z,5.62
2018-01-16T14:58:37.102Z,5.57
2018-01-16T15:01:07.897Z,5.57
2018-01-16T15:03:38.677Z,5.54
2018-01-16T15:06:09.519Z,5.54
2018-01-16T15:08:40.372Z,5.42
2018-01-16T15:11:11.294Z,5.29
2018-01-16T15:13:42.045Z,5.26
2018-01-16T15:16:12.825Z,5.18
2018-01-16T15:18:43.653Z,5.19
2018-01-16T15:21:14.555Z,5.26
2018-01-16T15:23:45.349Z,5.20
2018-01-16T15:26:16.118Z,5.21
2018-01-16T15:28:47.016Z,5.16
2018-01-16T15:31:17.760Z,5.03
2018-01-16T15:33:48.533Z,5.02
2018-01-16T15:36:19.300Z,4.97
2018-01-16T15:38:50.071Z,4.93
2018-01-16T15:41:20.853Z,4.84
2018-01-16T15:43:51.662Z,4.87
2018-01-16T15:46:22.716Z,4.78
2018-01-16T15:48:53.560Z,4.85
2018-01-16T15:51:24.376Z,4.88
2018-01-16T15:53:55.172Z,4.97
2018-01-16T15:56:25.988Z,5.00
2018-01-16T15:58:56.755Z,4.94
2018-01-16T16:01:27.520Z,4.97
2018-01-16T16:03:58.272Z,4.94
2018-01-16T16:06:29.044Z,4.96
2018-01-16T16:09:00.821Z,4.98
2018-01-16T16:11:31.636Z,4.92
2018-01-16T16:14:02.420Z,4.94
2018-01-16T16:16:33.474Z,4.97
2018-01-16T16:19:04.241Z,4.96
2018-01-16T16:21:35.018Z,4.97
2018-01-16T16:24:05.771Z,4.95
2018-01-16T16:26:36.567Z,4.94
2018-01-16T16:29:07.323Z,4.86
2018-01-16T16:31:38.099Z,4.77
2018-01-16T16:34:08.875Z,4.80
2018-01-16T16:36:39.639Z,4.72
2018-01-16T16:39:10.451Z,4.60
2018-01-16T16:41:41.223Z,4.60
2018-01-16T16:44:11.996Z,4.59
2018-01-16T16:46:42.771Z,4.42
2018-01-16T16:49:13.516Z,4.45
2018-01-16T16:51:44.299Z,4.45
2018-01-16T16:54:15.079Z,4.32
2018-01-16T16:56:45.991Z,4.21
2018-01-16T16:59:16.805Z,4.28
2018-01-16T17:01:47.596Z,4.14
2018-01-16T17:04:18.386Z,4.17
2018-01-16T17:06:49.174Z,4.24
2018-01-16T17:15:14.920Z,4.02
2018-01-16T17:17:45.677Z,4.06
2018-01-16T17:20:16.448Z,4.08
2018-01-16T17:22:47.209Z,4.15
2018-01-16T17:25:18.015Z,4.12
2018-01-16T17:27:48.784Z,4.13
2018-01-16T17:30:19.621Z,4.08
2018-01-16T17:32:50.380Z,4.05
2018-01-16T17:35:21.126Z,3.98
2018-01-16T17:37:51.912Z,3.95
2018-01-16T17:40:22.715Z,3.95
2018-01-16T17:42:53.486Z,3.98
2018-01-16T17:45:24.303Z,4.05
2018-01-16T17:47:55.056Z,3.99
2018-01-16T17:50:25.818Z,3.95
2018-01-16T17:52:56.604Z,4.00
2018-01-16T17:55:42.394Z,3.97
2018-01-16T17:58:13.348Z,3.91
2018-01-16T18:00:44.186Z,3.93
2018-01-16T18:03:15.064Z,3.98
2018-01-16T18:05:45.808Z,3.98
2018-01-16T18:08:16.571Z,3.98
2018-01-16T18:10:47.391Z,3.98
2018-01-16T18:13:18.164Z,3.95
2018-01-16T18:15:48.922Z,3.92
2018-01-16T18:18:19.696Z,3.98
2018-01-16T18:20:50.471Z,3.94
2018-01-16T18:23:21.245Z,3.91
2018-01-16T18:25:52.051Z,3.91
2018-01-16T18:28:22.792Z,3.81
2018-01-16T18:30:53.615Z,3.87
2018-01-16T18:33:24.392Z,3.93
2018-01-16T18:35:55.159Z,3.88
2018-01-16T18:38:25.969Z,3.90
2018-01-16T18:40:56.867Z,3.94
2018-01-16T18:43:30.835Z,3.96
2018-01-16T18:46:01.700Z,3.98
2018-01-16T18:48:32.541Z,3.99
2018-01-16T18:51:03.394Z,3.97
2018-01-16T18:53:34.224Z,3.99
2018-01-16T18:56:05.047Z,3.94
2018-01-16T18:58:35.884Z,3.87
2018-01-16T19:01:06.726Z,3.91
2018-01-16T19:03:39.566Z,3.88
2018-01-16T19:06:10.561Z,3.91
2018-01-16T19:08:41.314Z,3.78
2018-01-16T19:11:12.128Z,3.89
2018-01-16T19:13:43.120Z,3.81
2018-01-16T19:16:13.927Z,3.82
2018-01-16T19:18:44.700Z,3.78
2018-01-16T19:21:15.448Z,3.79
2018-01-16T19:23:46.221Z,3.69
2018-01-16T19:26:17.005Z,3.78
2018-01-16T19:28:47.772Z,3.69
2018-01-16T19:31:18.546Z,3.67
2018-01-16T19:33:49.314Z,3.55
2018-01-16T19:36:20.126Z,3.53
2018-01-16T19:38:50.996Z,3.70
2018-01-16T19:41:21.803Z,3.69
2018-01-16T19:43:52.623Z,3.69
2018-01-16T19:46:23.410Z,3.69
2018-01-16T19:48:54.176Z,3.74
2018-01-16T19:51:24.988Z,3.82
2018-01-16T19:53:55.848Z,3.92
2018-01-16T19:56:26.680Z,3.91
2018-01-16T19:58:57.449Z,3.93
2018-01-16T20:01:28.320Z,3.96
2018-01-16T20:03:59.175Z,3.94
2018-01-16T20:06:30.028Z,3.94
2018-01-16T20:09:00.850Z,3.88
2018-01-16T20:11:31.662Z,3.95
2018-01-16T20:14:02.493Z,3.89
2018-01-16T20:16:51.835Z,3.97
2018-01-16T20:19:22.658Z,3.95
2018-01-16T20:21:53.483Z,3.95
2018-01-16T20:24:24.306Z,3.95
2018-01-16T20:26:55.206Z,3.99
2018-01-16T20:29:26.094Z,4.08
2018-01-16T20:31:56.896Z,4.09
2018-01-16T20:34:27.678Z,4.09
2018-01-16T20:36:58.456Z,4.06
2018-01-16T20:39:29.328Z,4.08
2018-01-16T20:42:00.088Z,4.14
2018-01-16T20:44:30.905Z,4.24
2018-01-16T20:47:01.743Z,4.33
2018-01-16T20:49:32.538Z,4.31
2018-01-16T20:52:10.240Z,4.40
2018-01-16T20:54:41.004Z,4.38
2018-01-16T20:57:11.802Z,4.37
2018-01-16T20:59:42.595Z,4.38
2018-01-16T21:02:13.405Z,4.41
2018-01-16T21:04:44.242Z,4.40
2018-01-16T21:07:15.020Z,4.41
2018-01-16T21:09:45.757Z,4.45
2018-01-16T21:12:16.580Z,4.49
2018-01-16T21:14:47.413Z,4.49
2018-01-16T21:17:18.210Z,4.49
2018-01-16T21:19:48.958Z,4.45
2018-01-16T21:22:19.764Z,4.44
2018-01-16T21:24:50.516Z,4.38
2018-01-16T21:27:21.281Z,4.34
2018-01-16T21:29:52.082Z,4.29
2018-01-16T21:32:22.875Z,4.27
2018-01-16T21:34:53.647Z,4.25
2018-01-16T21:37:24.512Z,4.19
2018-01-16T21:39:55.317Z,4.19
2018-01-16T21:42:26.133Z,4.22
2018-01-16T21:44:56.942Z,4.17
2018-01-16T21:47:27.823Z,4.10
2018-01-16T21:49:58.602Z,4.06
2018-01-16T21:52:29.417Z,4.04
2018-01-16T21:55:00.168Z,4.02
2018-01-16T21:57:30.908Z,4.07
2018-01-16T22:00:01.724Z,4.03
2018-01-16T22:02:32.552Z,4.01
2018-01-16T22:05:03.311Z,4.07
2018-01-16T22:07:34.081Z,4.09
2018-01-16T22:10:04.840Z,4.03
2018-01-16T22:12:35.604Z,4.00
2018-01-16T22:15:06.390Z,3.98
2018-01-16T22:17:37.186Z,3.98
2018-01-16T22:20:07.986Z,3.96
2018-01-16T22:22:38.794Z,3.92
2018-01-16T22:25:09.536Z,3.92
2018-01-16T22:30:40.068Z,3.82
2018-01-16T22:33:10.867Z,3.76
2018-01-16T22:35:41.621Z,3.65
2018-01-16T22:38:12.384Z,3.63
2018-01-16T22:40:43.223Z,3.60
2018-01-16T22:43:14.024Z,3.57
2018-01-16T22:45:44.799Z,3.38
2018-01-16T22:48:15.861Z,3.22
2018-01-16T22:50:46.655Z,3.14
2018-01-16T22:53:17.431Z,3.00
2018-01-16T22:55:48.208Z,2.98
2018-01-16T22:58:18.957Z,2.96
2018-01-16T23:00:49.711Z,2.88
2018-01-16T23:03:20.558Z,2.90
2018-01-16T23:05:51.309Z,2.97
2018-01-16T23:08:22.250Z,3.04
2018-01-16T23:10:53.004Z,3.12
2018-01-16T23:13:23.801Z,3.21
2018-01-16T23:15:54.562Z,3.19
2018-01-16T23:18:25.357Z,3.12
2018-01-16T23:20:56.130Z,3.12
2018-01-16T23:23:26.896Z,3.11
2018-01-16T23:25:57.664Z,3.08
2018-01-16T23:28:28.456Z,3.08
2018-01-16T23:30:59.222Z,3.01
2018-01-16T23:33:29.988Z,2.99
2018-01-16T23:36:00.756Z,3.12
2018-01-16T23:38:31.521Z,3.18
2018-01-16T23:41:02.389Z,3.21
2018-01-16T23:43:33.148Z,3.24
2018-01-16T23:46:03.889Z,3.29
2018-01-16T23:48:34.643Z,3.29
2018-01-16T23:51:05.404Z,3.38
2018-01-16T23:53:36.242Z,3.40
2018-01-16T23:56:07.020Z,3.41
2018-01-16T23:58:37.805Z,3.44
